Time;durP1;ratioP1;P1;durP2;ratioP2;P2;SDS_P1;SDS_P2;PMS_P1;PMS_P2;Temp;Humidity;BMP_temperature;BMP_pressure;BME280_temperature;BME280_humidity;BME280_pressure;Samples;Min_cycle;Max_cycle;Signal;HPM_P1;HPM_P2
2023/04/14 00:01:14;;;;;;;4.15;1.50;;;;;;;;;;5032624;28;20216;-63
2023/04/14 00:03:40;;;;;;;4.80;1.55;;;;;;;;;;5033546;28;20578;-63
2023/04/14 00:06:05;;;;;;;5.82;1.55;;;;;;;;;;5033137;28;20224;-63
2023/04/14 00:08:30;;;;;;;3.92;1.65;;;;;;;;;;5033006;28;20548;-63
2023/04/14 00:10:56;;;;;;;4.35;1.60;;;;;;;;;;5033659;28;20219;-63
2023/04/14 00:13:21;;;;;;;4.95;1.58;;;;;;;;;;5032507;28;20678;-62
2023/04/14 00:15:46;;;;;;;4.97;1.60;;;;;;;;;;5033064;28;20219;-63
2023/04/14 00:18:11;;;;;;;4.22;1.60;;;;;;;;;;5031754;28;20208;-63
2023/04/14 00:20:37;;;;;;;5.25;1.60;;;;;;;;;;5032706;28;20258;-63
2023/04/14 00:23:02;;;;;;;9.50;2.10;;;;;;;;;;5030473;28;20212;-62
2023/04/14 00:25:27;;;;;;;7.47;1.55;;;;;;;;;;5033263;28;20216;-63
2023/04/14 00:27:52;;;;;;;5.70;1.63;;;;;;;;;;5032372;28;20706;-63
2023/04/14 00:30:18;;;;;;;6.25;2.13;;;;;;;;;;5032044;28;20208;-63
2023/04/14 00:32:43;;;;;;;5.37;1.83;;;;;;;;;;5033246;28;20222;-63
2023/04/14 00:35:08;;;;;;;5.35;1.77;;;;;;;;;;5031778;28;20266;-63
2023/04/14 00:37:34;;;;;;;7.68;2.13;;;;;;;;;;5032893;28;20215;-63
2023/04/14 00:39:59;;;;;;;7.70;1.90;;;;;;;;;;5033107;28;20216;-63
2023/04/14 00:42:24;;;;;;;10.27;2.10;;;;;;;;;;5031655;28;21074;-63
2023/04/14 00:44:50;;;;;;;7.10;2.08;;;;;;;;;;5032691;28;20223;-63
2023/04/14 00:47:16;;;;;;;7.27;2.00;;;;;;;;;;5031059;28;20219;-63
2023/04/14 00:49:41;;;;;;;5.88;1.77;;;;;;;;;;5032215;28;20227;-63
2023/04/14 00:52:06;;;;;;;6.50;2.03;;;;;;;;;;5032222;28;20220;-63
2023/04/14 00:54:31;;;;;;;6.35;2.13;;;;;;;;;;5017674;28;20637;-63
2023/04/14 00:56:57;;;;;;;6.90;2.40;;;;;;;;;;5012196;28;20204;-63
2023/04/14 00:59:22;;;;;;;6.68;2.30;;;;;;;;;;4995062;28;20231;-63
2023/04/14 01:01:47;;;;;;;6.60;2.35;;;;;;;;;;5012481;28;20631;-63
2023/04/14 01:04:13;;;;;;;6.47;2.80;;;;;;;;;;4994290;28;20205;-63
2023/04/14 01:06:38;;;;;;;6.25;2.40;;;;;;;;;;5012674;28;20579;-64
2023/04/14 01:09:03;;;;;;;9.93;2.77;;;;;;;;;;5005652;28;20233;-63
2023/04/14 01:11:30;;;;;;;8.57;2.95;;;;;;;;;;5000816;28;20730;-63
2023/04/14 01:14:02;;;;;;;8.77;2.90;;;;;;;;;;5002618;28;20532;-63
2023/04/14 01:16:28;;;;;;;7.43;2.70;;;;;;;;;;4980838;28;20421;-63
2023/04/14 01:18:58;;;;;;;8.60;3.10;;;;;;;;;;4993985;28;20263;-63
2023/04/14 01:21:25;;;;;;;11.95;4.20;;;;;;;;;;4994462;28;20310;-63
2023/04/14 01:24:10;;;;;;;9.45;3.65;;;;;;;;;;4988904;28;20685;-63
2023/04/14 01:26:35;;;;;;;9.10;3.55;;;;;;;;;;4993470;28;20242;-64
2023/04/14 01:29:16;;;;;;;9.13;3.72;;;;;;;;;;5001762;28;20216;-62
2023/04/14 01:31:43;;;;;;;9.07;3.77;;;;;;;;;;4984249;28;20261;-63
2023/04/14 01:34:10;;;;;;;8.18;3.55;;;;;;;;;;5002089;28;20582;-63
2023/04/14 01:36:38;;;;;;;9.17;3.83;;;;;;;;;;4985351;28;20219;-63
2023/04/14 01:39:04;;;;;;;9.83;3.90;;;;;;;;;;4979719;28;20684;-62
2023/04/14 01:41:30;;;;;;;7.70;3.83;;;;;;;;;;4974217;28;20208;-63
2023/04/14 01:43:55;;;;;;;8.32;4.15;;;;;;;;;;4980348;28;20288;-63
2023/04/14 01:46:20;;;;;;;11.50;4.70;;;;;;;;;;5000324;28;20228;-63
2023/04/14 01:48:47;;;;;;;11.23;4.40;;;;;;;;;;4990019;28;20213;-63
2023/04/14 01:51:13;;;;;;;11.43;4.63;;;;;;;;;;5005674;28;20217;-63
2023/04/14 01:53:39;;;;;;;9.95;4.45;;;;;;;;;;4997956;28;20654;-63
2023/04/14 01:56:04;;;;;;;9.32;4.90;;;;;;;;;;4987656;28;20255;-63
2023/04/14 01:58:29;;;;;;;10.87;3.70;;;;;;;;;;4988433;28;20220;-63
2023/04/14 02:00:55;;;;;;;11.35;4.25;;;;;;;;;;5004172;28;20212;-63
2023/04/14 02:03:20;;;;;;;8.73;4.18;;;;;;;;;;4979819;28;20217;-63
2023/04/14 02:05:46;;;;;;;9.95;4.15;;;;;;;;;;4979619;28;20565;-63
2023/04/14 02:08:12;;;;;;;9.52;4.15;;;;;;;;;;4998284;28;20220;-63
2023/04/14 02:10:38;;;;;;;10.73;4.50;;;;;;;;;;5010817;28;20213;-63
2023/04/14 02:13:03;;;;;;;9.45;4.88;;;;;;;;;;4996112;28;20235;-63
2023/04/14 02:15:28;;;;;;;13.27;4.88;;;;;;;;;;5015871;28;20686;-63
2023/04/14 02:17:53;;;;;;;11.05;5.00;;;;;;;;;;4986147;28;20260;-63
2023/04/14 02:20:19;;;;;;;9.27;4.95;;;;;;;;;;4977558;28;20271;-63
2023/04/14 02:22:44;;;;;;;12.60;5.13;;;;;;;;;;4996584;28;20220;-63
2023/04/14 02:25:10;;;;;;;9.45;4.78;;;;;;;;;;5017365;28;20216;-63
2023/04/14 02:27:40;;;;;;;10.48;5.00;;;;;;;;;;4997352;28;20574;-64
2023/04/14 02:30:07;;;;;;;11.47;4.87;;;;;;;;;;5015111;28;20216;-63
2023/04/14 02:32:32;;;;;;;9.93;5.00;;;;;;;;;;4997737;28;20675;-63
2023/04/14 02:35:00;;;;;;;9.18;4.50;;;;;;;;;;4997231;28;20223;-63
2023/04/14 02:37:26;;;;;;;11.05;5.18;;;;;;;;;;5009704;28;20691;-63
2023/04/14 02:39:55;;;;;;;11.93;5.23;;;;;;;;;;4993532;28;20247;-63
2023/04/14 02:42:21;;;;;;;10.65;5.22;;;;;;;;;;4996845;28;20214;-63
2023/04/14 02:44:47;;;;;;;12.32;5.07;;;;;;;;;;4997646;28;20581;-63
2023/04/14 02:47:14;;;;;;;11.13;5.28;;;;;;;;;;5006721;28;20300;-63
2023/04/14 02:49:40;;;;;;;11.35;5.45;;;;;;;;;;4994938;28;20209;-63
2023/04/14 02:52:06;;;;;;;9.80;5.40;;;;;;;;;;4977705;28;20201;-63
2023/04/14 02:54:33;;;;;;;12.37;5.50;;;;;;;;;;4989970;28;20247;-64
2023/04/14 02:56:58;;;;;;;13.20;5.30;;;;;;;;;;4997178;28;20223;-63
2023/04/14 02:59:23;;;;;;;12.80;5.35;;;;;;;;;;4997092;28;20208;-63
2023/04/14 03:01:49;;;;;;;13.52;5.90;;;;;;;;;;5015166;28;20627;-63
2023/04/14 03:04:14;;;;;;;8.93;5.90;;;;;;;;;;5013681;28;20212;-63
2023/04/14 03:06:39;;;;;;;11.27;5.70;;;;;;;;;;5014845;28;20243;-63
2023/04/14 03:09:05;;;;;;;10.05;5.50;;;;;;;;;;5013666;28;20235;-63
2023/04/14 03:11:30;;;;;;;11.40;5.93;;;;;;;;;;5008618;28;20266;-63
2023/04/14 03:13:55;;;;;;;10.33;5.97;;;;;;;;;;5017021;28;20220;-63
2023/04/14 03:16:21;;;;;;;10.80;5.93;;;;;;;;;;5015437;28;20672;-63
2023/04/14 03:18:47;;;;;;;9.57;5.80;;;;;;;;;;5030432;28;20220;-63
2023/04/14 03:21:13;;;;;;;11.03;6.43;;;;;;;;;;5016395;28;20698;-63
2023/04/14 03:23:38;;;;;;;15.32;6.15;;;;;;;;;;5024912;28;20312;-64
2023/04/14 03:26:04;;;;;;;12.77;6.40;;;;;;;;;;5013951;28;20648;-63
2023/04/14 03:28:29;;;;;;;10.65;6.20;;;;;;;;;;5014602;28;20224;-63
2023/04/14 03:30:54;;;;;;;13.20;6.90;;;;;;;;;;4996367;28;20751;-63
2023/04/14 03:33:23;;;;;;;12.87;6.43;;;;;;;;;;5013749;28;20227;-63
2023/04/14 03:35:49;;;;;;;10.93;6.10;;;;;;;;;;5014169;28;20213;-64
2023/04/14 03:38:14;;;;;;;15.40;6.50;;;;;;;;;;5012966;28;20213;-63
2023/04/14 03:40:43;;;;;;;11.33;5.77;;;;;;;;;;4996946;28;20303;-63
2023/04/14 03:43:11;;;;;;;12.50;6.20;;;;;;;;;;4996783;28;20239;-63
2023/04/14 03:45:43;;;;;;;13.55;6.53;;;;;;;;;;5013322;28;20270;-63
2023/04/14 03:48:10;;;;;;;13.98;6.65;;;;;;;;;;4997334;28;20217;-63
2023/04/14 03:50:39;;;;;;;13.02;6.65;;;;;;;;;;5013802;28;20296;-63
2023/04/14 03:53:05;;;;;;;14.48;6.65;;;;;;;;;;5018460;28;20220;-63
2023/04/14 03:55:30;;;;;;;12.03;6.87;;;;;;;;;;4996465;28;20834;-63
2023/04/14 03:57:56;;;;;;;10.70;6.50;;;;;;;;;;4996620;28;20235;-64
2023/04/14 04:00:21;;;;;;;10.43;6.07;;;;;;;;;;4964853;28;20217;-64
2023/04/14 04:02:47;;;;;;;11.63;6.73;;;;;;;;;;4951913;28;20209;-63
2023/04/14 04:05:12;;;;;;;13.80;6.47;;;;;;;;;;4963966;28;20220;-63
2023/04/14 04:07:37;;;;;;;14.50;7.40;;;;;;;;;;4964700;28;20355;-63
2023/04/14 04:10:03;;;;;;;15.13;7.13;;;;;;;;;;4964573;28;20362;-63
2023/04/14 04:12:28;;;;;;;13.60;7.30;;;;;;;;;;4965780;28;20217;-63
2023/04/14 04:14:53;;;;;;;14.83;6.80;;;;;;;;;;4959354;28;20594;-63
2023/04/14 04:17:19;;;;;;;12.77;7.00;;;;;;;;;;4964012;28;20220;-63
2023/04/14 04:19:44;;;;;;;14.23;7.40;;;;;;;;;;4957640;28;20417;-63
2023/04/14 04:22:10;;;;;;;13.47;6.17;;;;;;;;;;4979311;28;20217;-64
2023/04/14 04:24:36;;;;;;;14.43;7.10;;;;;;;;;;4951920;28;20219;-64
2023/04/14 04:27:02;;;;;;;15.27;7.30;;;;;;;;;;4963417;28;20574;-64
2023/04/14 04:29:27;;;;;;;16.02;7.43;;;;;;;;;;4966838;28;20829;-64
2023/04/14 04:31:52;;;;;;;15.00;6.88;;;;;;;;;;4983753;28;20616;-64
2023/04/14 04:34:18;;;;;;;12.82;6.78;;;;;;;;;;4972328;28;20225;-63
2023/04/14 04:36:43;;;;;;;15.23;7.17;;;;;;;;;;4960639;28;20271;-65
2023/04/14 04:39:08;;;;;;;15.53;7.80;;;;;;;;;;4975409;28;20248;-64
2023/04/14 04:41:33;;;;;;;12.80;7.13;;;;;;;;;;4974897;28;20245;-64
2023/04/14 04:43:59;;;;;;;18.00;7.47;;;;;;;;;;4979990;28;20247;-64
2023/04/14 04:46:43;;;;;;;13.75;7.13;;;;;;;;;;4982764;28;20704;-65
2023/04/14 04:49:08;;;;;;;13.17;7.20;;;;;;;;;;4982033;28;20221;-66
2023/04/14 04:51:33;;;;;;;12.20;8.07;;;;;;;;;;4983355;28;20217;-65
2023/04/14 04:53:59;;;;;;;13.93;7.97;;;;;;;;;;4989729;28;20235;-64
2023/04/14 04:56:25;;;;;;;16.23;7.60;;;;;;;;;;4982600;28;20216;-64
2023/04/14 04:58:50;;;;;;;13.00;7.22;;;;;;;;;;4980137;28;20225;-64
2023/04/14 05:01:17;;;;;;;13.18;6.93;;;;;;;;;;4975447;28;20209;-64
2023/04/14 05:03:43;;;;;;;13.85;7.47;;;;;;;;;;4991033;28;20220;-64
2023/04/14 05:06:08;;;;;;;12.53;7.20;;;;;;;;;;5013672;28;20285;-63
2023/04/14 05:08:33;;;;;;;13.30;7.10;;;;;;;;;;5003066;28;20371;-63
2023/04/14 05:10:58;;;;;;;16.03;7.50;;;;;;;;;;4998410;28;20559;-64
2023/04/14 05:13:24;;;;;;;13.40;7.50;;;;;;;;;;5004525;28;20216;-63
2023/04/14 05:15:49;;;;;;;10.53;6.87;;;;;;;;;;5024769;28;20216;-63
2023/04/14 05:18:14;;;;;;;12.95;7.28;;;;;;;;;;5031693;28;20220;-63
2023/04/14 05:20:40;;;;;;;14.73;7.63;;;;;;;;;;5032480;28;20573;-64
2023/04/14 05:23:05;;;;;;;13.50;7.67;;;;;;;;;;5026346;28;20420;-63
2023/04/14 05:25:30;;;;;;;12.10;6.40;;;;;;;;;;5032422;28;20227;-63
2023/04/14 05:27:56;;;;;;;11.88;6.20;;;;;;;;;;5032361;28;20235;-62
2023/04/14 05:30:21;;;;;;;11.97;6.70;;;;;;;;;;5030200;28;20468;-62
2023/04/14 05:32:46;;;;;;;14.15;7.68;;;;;;;;;;5032355;28;20215;-63
2023/04/14 05:35:11;;;;;;;12.90;6.03;;;;;;;;;;5031941;28;20265;-62
2023/04/14 05:37:37;;;;;;;11.05;5.72;;;;;;;;;;5031293;28;20729;-63
2023/04/14 05:40:02;;;;;;;10.52;5.70;;;;;;;;;;5031929;28;20216;-63
2023/04/14 05:42:28;;;;;;;11.93;6.00;;;;;;;;;;5032339;28;20239;-63
2023/04/14 05:44:53;;;;;;;13.57;5.95;;;;;;;;;;5031525;28;20220;-63
2023/04/14 05:47:18;;;;;;;12.20;5.63;;;;;;;;;;5031686;28;20709;-63
2023/04/14 05:49:43;;;;;;;11.13;6.15;;;;;;;;;;5032233;28;20211;-63
2023/04/14 05:52:09;;;;;;;13.25;6.07;;;;;;;;;;5029542;28;20583;-62
2023/04/14 05:54:34;;;;;;;11.43;6.07;;;;;;;;;;5012298;28;20220;-63
2023/04/14 05:57:00;;;;;;;12.32;5.55;;;;;;;;;;5007902;28;20672;-62
2023/04/14 05:59:26;;;;;;;12.52;5.72;;;;;;;;;;5010292;28;20452;-63
2023/04/14 06:01:51;;;;;;;11.65;5.78;;;;;;;;;;4987700;28;20224;-63
2023/04/14 06:04:16;;;;;;;11.63;5.60;;;;;;;;;;4991971;28;20208;-64
2023/04/14 06:06:42;;;;;;;9.57;5.18;;;;;;;;;;4991652;28;20688;-63
2023/04/14 06:09:07;;;;;;;11.60;5.03;;;;;;;;;;4991840;28;20216;-62
2023/04/14 06:11:32;;;;;;;13.70;5.57;;;;;;;;;;4992669;28;20217;-63
2023/04/14 06:14:00;;;;;;;9.45;5.57;;;;;;;;;;4993157;28;20205;-63
2023/04/14 06:16:25;;;;;;;17.48;5.70;;;;;;;;;;5011240;28;20207;-62
2023/04/14 06:18:50;;;;;;;13.43;5.50;;;;;;;;;;5011758;28;20307;-63
2023/04/14 06:21:15;;;;;;;13.80;5.32;;;;;;;;;;5010735;28;20204;-62
2023/04/14 06:23:41;;;;;;;12.48;5.85;;;;;;;;;;4986368;28;20241;-63
2023/04/14 06:26:06;;;;;;;11.43;5.13;;;;;;;;;;5002275;28;20582;-63
2023/04/14 06:28:31;;;;;;;10.65;4.63;;;;;;;;;;5014100;28;20228;-63
2023/04/14 06:30:57;;;;;;;9.82;4.80;;;;;;;;;;5013975;28;20574;-63
2023/04/14 06:33:22;;;;;;;12.85;5.43;;;;;;;;;;5014459;28;20220;-63
2023/04/14 06:35:48;;;;;;;12.35;5.47;;;;;;;;;;5015611;28;20351;-63
2023/04/14 06:38:13;;;;;;;12.70;5.63;;;;;;;;;;5017637;28;20366;-63
2023/04/14 06:40:38;;;;;;;13.80;5.25;;;;;;;;;;5024419;28;20210;-63
2023/04/14 06:43:04;;;;;;;10.00;5.20;;;;;;;;;;5030717;28;20674;-63
2023/04/14 06:45:30;;;;;;;12.80;5.40;;;;;;;;;;5025925;28;20232;-63
2023/04/14 06:47:55;;;;;;;10.82;4.90;;;;;;;;;;4999538;28;20216;-63
2023/04/14 06:50:20;;;;;;;9.82;4.95;;;;;;;;;;5023227;28;20242;-63
2023/04/14 06:52:46;;;;;;;10.75;4.57;;;;;;;;;;5032347;28;20612;-62
2023/04/14 06:55:11;;;;;;;9.57;4.03;;;;;;;;;;5014031;28;20294;-64
2023/04/14 06:57:36;;;;;;;12.10;4.35;;;;;;;;;;5013977;28;20583;-63
2023/04/14 07:00:03;;;;;;;10.95;4.55;;;;;;;;;;5008037;28;20303;-63
2023/04/14 07:02:29;;;;;;;11.85;4.78;;;;;;;;;;5014453;28;20262;-64
2023/04/14 07:04:55;;;;;;;11.38;4.70;;;;;;;;;;5015033;28;20205;-64
2023/04/14 07:07:20;;;;;;;9.93;4.35;;;;;;;;;;5014561;28;20741;-63
2023/04/14 07:09:46;;;;;;;12.07;4.88;;;;;;;;;;5021474;28;20274;-64
2023/04/14 07:12:13;;;;;;;12.27;4.70;;;;;;;;;;5001086;28;20300;-63
2023/04/14 07:14:39;;;;;;;10.32;5.07;;;;;;;;;;5027319;28;20746;-63
2023/04/14 07:17:04;;;;;;;11.48;4.53;;;;;;;;;;5004639;28;20291;-63
2023/04/14 07:19:30;;;;;;;12.52;5.10;;;;;;;;;;5034348;28;20208;-63
2023/04/14 07:21:55;;;;;;;11.88;4.53;;;;;;;;;;5034441;28;20756;-63
2023/04/14 07:24:20;;;;;;;8.82;4.30;;;;;;;;;;5019340;28;20542;-63
2023/04/14 07:26:46;;;;;;;9.55;4.50;;;;;;;;;;5013781;28;20224;-63
2023/04/14 07:29:11;;;;;;;11.35;4.13;;;;;;;;;;5013694;28;20299;-63
2023/04/14 07:31:38;;;;;;;10.77;4.70;;;;;;;;;;5013694;28;20217;-63
2023/04/14 07:34:03;;;;;;;9.93;4.35;;;;;;;;;;5014096;28;20209;-63
2023/04/14 07:36:29;;;;;;;10.73;4.53;;;;;;;;;;5013691;28;20208;-63
2023/04/14 07:38:55;;;;;;;10.10;4.20;;;;;;;;;;5013592;28;20204;-63
2023/04/14 07:41:20;;;;;;;10.07;3.88;;;;;;;;;;5013353;28;20706;-63
2023/04/14 07:43:46;;;;;;;9.85;4.50;;;;;;;;;;5013159;28;20221;-63
2023/04/14 07:46:11;;;;;;;8.18;4.10;;;;;;;;;;5013508;28;20328;-63
2023/04/14 07:48:37;;;;;;;12.13;4.15;;;;;;;;;;4998936;28;20212;-63
2023/04/14 07:51:03;;;;;;;12.73;4.38;;;;;;;;;;4993499;28;20217;-63
2023/04/14 07:53:28;;;;;;;9.10;4.32;;;;;;;;;;5014229;28;20232;-63
2023/04/14 07:55:54;;;;;;;10.45;4.20;;;;;;;;;;5012632;28;20204;-63
2023/04/14 07:58:19;;;;;;;12.60;4.55;;;;;;;;;;5012579;28;20223;-63
2023/04/14 08:00:45;;;;;;;9.27;4.30;;;;;;;;;;5014036;28;20231;-63
2023/04/14 08:03:10;;;;;;;10.75;4.18;;;;;;;;;;5013615;28;20217;-63
2023/04/14 08:05:35;;;;;;;11.00;4.13;;;;;;;;;;5013033;28;20593;-63
2023/04/14 08:08:00;;;;;;;11.68;4.10;;;;;;;;;;5013415;28;20221;-63
2023/04/14 08:10:26;;;;;;;8.90;3.95;;;;;;;;;;5013588;28;20208;-63
2023/04/14 08:12:51;;;;;;;10.85;3.80;;;;;;;;;;5013095;28;20307;-63
2023/04/14 08:15:17;;;;;;;14.35;4.22;;;;;;;;;;5012979;28;20706;-64
2023/04/14 08:17:42;;;;;;;10.15;3.85;;;;;;;;;;5013684;28;20259;-64
2023/04/14 08:20:07;;;;;;;10.73;3.78;;;;;;;;;;5012687;28;20224;-63
2023/04/14 08:22:33;;;;;;;11.45;3.53;;;;;;;;;;5013711;28;20219;-65
2023/04/14 08:24:58;;;;;;;10.20;3.72;;;;;;;;;;5029286;28;20220;-64
2023/04/14 08:27:24;;;;;;;9.25;3.17;;;;;;;;;;5031411;28;20236;-64
2023/04/14 08:29:50;;;;;;;9.48;3.72;;;;;;;;;;5032770;28;20219;-64
2023/04/14 08:32:15;;;;;;;10.80;3.80;;;;;;;;;;5032571;28;20208;-64
2023/04/14 08:34:41;;;;;;;10.90;3.28;;;;;;;;;;5032254;28;20285;-64
2023/04/14 08:37:06;;;;;;;10.40;3.47;;;;;;;;;;5032440;28;20208;-63
2023/04/14 08:39:31;;;;;;;10.05;3.60;;;;;;;;;;5032891;28;20227;-64
2023/04/14 08:41:57;;;;;;;11.13;3.40;;;;;;;;;;5031896;28;20204;-64
2023/04/14 08:44:22;;;;;;;10.75;3.70;;;;;;;;;;5032045;28;20680;-64
2023/04/14 08:46:48;;;;;;;12.30;3.60;;;;;;;;;;5031741;28;20230;-64
2023/04/14 08:49:14;;;;;;;11.75;3.53;;;;;;;;;;5011392;28;20209;-64
2023/04/14 08:51:41;;;;;;;9.55;3.05;;;;;;;;;;5011761;28;20208;-64
2023/04/14 08:54:09;;;;;;;11.85;3.30;;;;;;;;;;5017254;28;20232;-63
2023/04/14 08:56:36;;;;;;;8.60;2.92;;;;;;;;;;5012755;28;20290;-64
2023/04/14 08:59:02;;;;;;;8.13;3.00;;;;;;;;;;5012068;28;20310;-63
2023/04/14 09:01:28;;;;;;;10.02;2.90;;;;;;;;;;4994705;28;20299;-65
2023/04/14 09:03:54;;;;;;;7.70;2.33;;;;;;;;;;5012913;28;20291;-64
2023/04/14 09:06:19;;;;;;;10.98;2.92;;;;;;;;;;4994608;28;20588;-64
2023/04/14 09:08:44;;;;;;;10.50;2.53;;;;;;;;;;4994634;28;20583;-63
2023/04/14 09:11:10;;;;;;;10.57;2.65;;;;;;;;;;5012004;28;20220;-63
2023/04/14 09:13:35;;;;;;;8.35;2.50;;;;;;;;;;5010795;28;20220;-64
2023/04/14 09:16:00;;;;;;;9.20;2.35;;;;;;;;;;5011613;28;20266;-63
2023/04/14 09:18:26;;;;;;;10.45;2.28;;;;;;;;;;5010158;28;20220;-64
2023/04/14 09:20:51;;;;;;;6.00;1.88;;;;;;;;;;4995159;28;20220;-64
2023/04/14 09:23:17;;;;;;;7.28;2.17;;;;;;;;;;5011268;28;20263;-63
2023/04/14 09:25:42;;;;;;;6.68;1.98;;;;;;;;;;5012497;28;20747;-65
2023/04/14 09:28:07;;;;;;;7.75;2.35;;;;;;;;;;5011449;28;20237;-63
2023/04/14 09:30:33;;;;;;;7.60;2.15;;;;;;;;;;5011640;28;20216;-63
2023/04/14 09:32:58;;;;;;;8.73;1.92;;;;;;;;;;5012600;28;20213;-64
2023/04/14 09:35:43;;;;;;;7.57;2.17;;;;;;;;;;5011868;28;20262;-64
2023/04/14 09:38:08;;;;;;;8.38;1.45;;;;;;;;;;5011260;28;20212;-63
2023/04/14 09:40:33;;;;;;;9.80;1.90;;;;;;;;;;5012443;28;20220;-63
2023/04/14 09:42:59;;;;;;;4.95;1.60;;;;;;;;;;5011135;28;20287;-63
2023/04/14 09:45:41;;;;;;;7.47;1.25;;;;;;;;;;4994230;28;20212;-64
2023/04/14 09:48:07;;;;;;;6.50;1.73;;;;;;;;;;5005676;28;20261;-63
2023/04/14 09:50:32;;;;;;;7.32;1.67;;;;;;;;;;5031389;28;20208;-64
2023/04/14 09:52:57;;;;;;;6.38;1.65;;;;;;;;;;5031886;28;20246;-64
2023/04/14 09:55:23;;;;;;;6.78;1.50;;;;;;;;;;5030347;28;20215;-63
2023/04/14 09:57:48;;;;;;;6.28;1.60;;;;;;;;;;5030917;28;20342;-64
2023/04/14 10:00:14;;;;;;;4.20;1.50;;;;;;;;;;5031543;28;20211;-64
2023/04/14 10:02:48;;;;;;;6.25;1.60;;;;;;;;;;5033014;28;20290;-64
2023/04/14 10:05:13;;;;;;;10.30;1.65;;;;;;;;;;5034857;28;20588;-63
2023/04/14 10:07:39;;;;;;;4.03;1.20;;;;;;;;;;5035755;28;20262;-64
2023/04/14 10:10:06;;;;;;;5.10;1.17;;;;;;;;;;5035392;28;20250;-64
2023/04/14 10:12:31;;;;;;;3.70;1.33;;;;;;;;;;5034568;28;20298;-64
2023/04/14 10:14:58;;;;;;;4.40;1.40;;;;;;;;;;5035740;28;20350;-64
2023/04/14 10:17:24;;;;;;;4.95;1.10;;;;;;;;;;5033928;28;20682;-64
2023/04/14 10:19:49;;;;;;;8.27;0.98;;;;;;;;;;5034885;28;20243;-64
2023/04/14 10:22:14;;;;;;;5.78;1.30;;;;;;;;;;5034062;28;20239;-64
2023/04/14 10:24:40;;;;;;;5.65;1.48;;;;;;;;;;5035533;28;20266;-64
2023/04/14 10:27:05;;;;;;;4.28;1.20;;;;;;;;;;5034099;28;20310;-63
2023/04/14 10:29:31;;;;;;;5.85;1.48;;;;;;;;;;5035491;28;20277;-64
2023/04/14 10:32:00;;;;;;;7.28;1.73;;;;;;;;;;5035397;28;20215;-64
2023/04/14 10:34:25;;;;;;;4.32;1.33;;;;;;;;;;5034452;28;20240;-63
2023/04/14 10:36:51;;;;;;;5.95;1.52;;;;;;;;;;5035339;28;20242;-63
2023/04/14 10:39:21;;;;;;;6.13;1.50;;;;;;;;;;5034193;28;20298;-64
2023/04/14 10:41:46;;;;;;;4.20;1.55;;;;;;;;;;5035391;28;20301;-64
2023/04/14 10:44:28;;;;;;;9.23;1.65;;;;;;;;;;5034685;28;20686;-63
2023/04/14 10:46:55;;;;;;;4.70;1.45;;;;;;;;;;5034071;28;20651;-63
2023/04/14 10:49:37;;;;;;;7.00;1.95;;;;;;;;;;5034881;28;20583;-64
2023/04/14 10:52:04;;;;;;;5.75;1.50;;;;;;;;;;5034585;28;20246;-62
2023/04/14 10:54:48;;;;;;;5.70;1.50;;;;;;;;;;5022438;28;20292;-64
2023/04/14 10:57:14;;;;;;;5.25;1.58;;;;;;;;;;5012158;28;20223;-64
2023/04/14 10:59:41;;;;;;;5.35;1.50;;;;;;;;;;5014894;28;20209;-63
2023/04/14 11:02:20;;;;;;;6.47;2.03;;;;;;;;;;5010541;28;20212;-64
2023/04/14 11:05:03;;;;;;;6.63;1.70;;;;;;;;;;5015060;28;20583;-63
2023/04/14 11:07:29;;;;;;;4.60;1.45;;;;;;;;;;5010911;28;20224;-63
2023/04/14 11:10:12;;;;;;;8.18;1.83;;;;;;;;;;5014877;28;20753;-64
2023/04/14 11:12:42;;;;;;;7.07;1.65;;;;;;;;;;5014532;28;20220;-64
2023/04/14 11:15:07;;;;;;;5.95;1.50;;;;;;;;;;5013195;28;20216;-63
2023/04/14 11:17:36;;;;;;;6.32;1.55;;;;;;;;;;5014207;28;20219;-63
2023/04/14 11:20:01;;;;;;;7.75;1.90;;;;;;;;;;5014257;28;20580;-63
2023/04/14 11:22:44;;;;;;;7.20;1.50;;;;;;;;;;4996181;28;20299;-63
2023/04/14 11:25:10;;;;;;;7.30;1.60;;;;;;;;;;4977536;28;20213;-63
2023/04/14 11:27:36;;;;;;;7.88;1.70;;;;;;;;;;5014393;28;20224;-64
2023/04/14 11:30:01;;;;;;;9.45;2.03;;;;;;;;;;4995239;28;20221;-63
2023/04/14 11:32:27;;;;;;;5.20;1.40;;;;;;;;;;5014046;28;20216;-63
2023/04/14 11:34:52;;;;;;;7.22;1.83;;;;;;;;;;4997007;28;20217;-65
2023/04/14 11:37:17;;;;;;;5.80;1.52;;;;;;;;;;5012525;28;20299;-64
2023/04/14 11:39:43;;;;;;;7.78;2.00;;;;;;;;;;5012907;28;20223;-64
2023/04/14 11:42:08;;;;;;;5.40;1.90;;;;;;;;;;5013679;28;20683;-64
2023/04/14 11:44:33;;;;;;;5.15;1.52;;;;;;;;;;5013175;28;20217;-64
2023/04/14 11:46:59;;;;;;;6.03;2.00;;;;;;;;;;5012743;28;20355;-64
2023/04/14 11:49:33;;;;;;;6.55;2.00;;;;;;;;;;5013687;28;20208;-64
2023/04/14 11:52:06;;;;;;;6.07;1.90;;;;;;;;;;5013926;28;20692;-64
2023/04/14 11:54:37;;;;;;;6.40;2.10;;;;;;;;;;5013582;28;20236;-64
2023/04/14 11:57:08;;;;;;;9.57;1.92;;;;;;;;;;5012948;28;20224;-63
2023/04/14 11:59:40;;;;;;;6.90;2.03;;;;;;;;;;5013958;28;20255;-64
2023/04/14 12:02:06;;;;;;;5.32;1.85;;;;;;;;;;5012902;28;20242;-65
2023/04/14 12:04:31;;;;;;;7.55;2.05;;;;;;;;;;4995637;28;20220;-64
2023/04/14 12:06:57;;;;;;;6.80;2.15;;;;;;;;;;5012527;28;20236;-64
2023/04/14 12:09:27;;;;;;;6.88;2.03;;;;;;;;;;4995919;28;20567;-64
2023/04/14 12:11:53;;;;;;;8.00;1.70;;;;;;;;;;5012959;28;20228;-64
2023/04/14 12:14:19;;;;;;;5.18;1.48;;;;;;;;;;4996779;28;20635;-63
2023/04/14 12:16:44;;;;;;;6.45;1.80;;;;;;;;;;4981928;28;20220;-64
2023/04/14 12:19:10;;;;;;;6.70;1.80;;;;;;;;;;4994996;28;20221;-63
2023/04/14 12:21:35;;;;;;;8.32;2.13;;;;;;;;;;4994014;28;20304;-64
2023/04/14 12:24:01;;;;;;;6.55;1.88;;;;;;;;;;4992407;28;20672;-63
2023/04/14 12:26:27;;;;;;;8.73;2.28;;;;;;;;;;5004023;28;20227;-64
2023/04/14 12:28:54;;;;;;;6.00;2.17;;;;;;;;;;5013192;28;20618;-64
2023/04/14 12:31:19;;;;;;;4.90;1.80;;;;;;;;;;5012396;28;20299;-63
2023/04/14 12:33:45;;;;;;;7.00;1.90;;;;;;;;;;4994745;28;20300;-63
2023/04/14 12:36:10;;;;;;;5.45;1.48;;;;;;;;;;5012790;28;20209;-63
2023/04/14 12:38:36;;;;;;;3.58;1.33;;;;;;;;;;5013272;28;20563;-63
2023/04/14 12:41:01;;;;;;;6.35;1.67;;;;;;;;;;5012034;28;20219;-63
2023/04/14 12:43:27;;;;;;;5.00;1.50;;;;;;;;;;5013214;28;20200;-64
2023/04/14 12:45:54;;;;;;;6.70;1.92;;;;;;;;;;5003961;28;20248;-64
2023/04/14 12:48:19;;;;;;;6.03;1.50;;;;;;;;;;5003157;28;20313;-63
2023/04/14 12:50:44;;;;;;;4.15;1.50;;;;;;;;;;5013029;28;20351;-64
2023/04/14 12:53:22;;;;;;;4.80;1.48;;;;;;;;;;5016963;28;20240;-63
2023/04/14 12:55:48;;;;;;;7.28;1.67;;;;;;;;;;5013073;28;20295;-63
2023/04/14 12:58:13;;;;;;;6.15;1.92;;;;;;;;;;4994647;28;20335;-64
2023/04/14 13:00:39;;;;;;;7.13;1.92;;;;;;;;;;5011445;28;20227;-63
2023/04/14 13:03:04;;;;;;;7.65;1.50;;;;;;;;;;5012088;28;20295;-63
2023/04/14 13:05:30;;;;;;;8.23;1.88;;;;;;;;;;5012727;28;20213;-64
2023/04/14 13:07:56;;;;;;;7.18;1.65;;;;;;;;;;5012029;28;20231;-64
2023/04/14 13:10:21;;;;;;;5.72;1.70;;;;;;;;;;5012369;28;20212;-63
2023/04/14 13:12:46;;;;;;;10.52;1.60;;;;;;;;;;5011897;28;20212;-63
2023/04/14 13:15:12;;;;;;;6.72;1.80;;;;;;;;;;4993781;28;20592;-63
2023/04/14 13:17:37;;;;;;;6.70;1.77;;;;;;;;;;4992492;28;20220;-63
2023/04/14 13:20:03;;;;;;;7.40;2.10;;;;;;;;;;4992650;28;20213;-63
2023/04/14 13:22:28;;;;;;;6.07;1.83;;;;;;;;;;4992476;28;20213;-63
2023/04/14 13:24:55;;;;;;;5.28;2.00;;;;;;;;;;4993009;28;20271;-63
2023/04/14 13:27:20;;;;;;;6.45;2.10;;;;;;;;;;4992502;28;20228;-63
2023/04/14 13:29:46;;;;;;;5.95;1.98;;;;;;;;;;4992312;28;20283;-63
2023/04/14 13:32:11;;;;;;;5.32;1.85;;;;;;;;;;4991729;28;20212;-63
2023/04/14 13:34:37;;;;;;;6.95;1.80;;;;;;;;;;4991777;28;20217;-63
2023/04/14 13:37:02;;;;;;;9.48;2.00;;;;;;;;;;4991922;28;20228;-63
2023/04/14 13:39:27;;;;;;;5.03;1.60;;;;;;;;;;4996732;28;20209;-63
2023/04/14 13:41:53;;;;;;;7.57;1.70;;;;;;;;;;4997199;28;20216;-63
2023/04/14 13:44:18;;;;;;;6.38;2.00;;;;;;;;;;4994677;28;20566;-63
2023/04/14 13:46:44;;;;;;;6.10;1.55;;;;;;;;;;4995844;28;20233;-63
2023/04/14 13:49:10;;;;;;;5.93;1.63;;;;;;;;;;4996104;28;20216;-63
2023/04/14 13:51:35;;;;;;;8.02;2.13;;;;;;;;;;4996725;28;20213;-63
2023/04/14 13:54:00;;;;;;;6.22;2.13;;;;;;;;;;5009977;28;20232;-63
2023/04/14 13:56:26;;;;;;;4.65;2.08;;;;;;;;;;5010425;28;20375;-63
2023/04/14 13:58:51;;;;;;;7.15;1.83;;;;;;;;;;4996318;28;20231;-63
2023/04/14 14:01:17;;;;;;;8.02;2.00;;;;;;;;;;4995999;28;20312;-64
2023/04/14 14:03:42;;;;;;;6.25;2.00;;;;;;;;;;5001136;28;20687;-64
2023/04/14 14:06:07;;;;;;;8.25;1.90;;;;;;;;;;5004194;28;20360;-63
2023/04/14 14:08:36;;;;;;;6.60;1.85;;;;;;;;;;4990802;28;20300;-64
2023/04/14 14:11:01;;;;;;;6.82;1.70;;;;;;;;;;4990531;28;20220;-64
2023/04/14 14:13:27;;;;;;;6.87;1.63;;;;;;;;;;4989166;28;20405;-63
2023/04/14 14:15:52;;;;;;;5.80;1.50;;;;;;;;;;4990491;28;20213;-63
2023/04/14 14:18:17;;;;;;;6.95;1.83;;;;;;;;;;4987643;28;20250;-62
2023/04/14 14:20:43;;;;;;;6.30;1.63;;;;;;;;;;4983600;28;20617;-63
2023/04/14 14:23:10;;;;;;;4.47;1.60;;;;;;;;;;4980326;28;20557;-63
2023/04/14 14:25:36;;;;;;;4.50;1.40;;;;;;;;;;4996551;28;20213;-63
2023/04/14 14:28:01;;;;;;;3.92;1.75;;;;;;;;;;4983870;28;20236;-63
2023/04/14 14:30:26;;;;;;;7.25;1.77;;;;;;;;;;4988323;28;20988;-63
2023/04/14 14:32:51;;;;;;;5.45;1.80;;;;;;;;;;4998353;28;20217;-63